Terminal Aerodrome Forecast
Issued by NWS

Home | Current Version | Previous Version | Text Only | Print | Product List | Glossary On
Versions: 1 2 3 4 5 6 7 8 9 10 11 12 13 14 15 16 17 18 19 20 21
000
FTUS41 KPHI 201904 AAA
TAFMIV
TAF AMD
KMIV 201904Z 2019/2118 11005KT 6SM -RA SCT040 OVC080
      TEMPO 2019/2021 3SM RA BR
     FM210200 15004KT 4SM BR BKN008 OVC015
     FM210600 00000KT 1SM BR OVC003
     FM211600 23005KT 5SM BR BKN008=

USA.gov is the U.S. government's official web portal to all federal, state and local government web resources and services.